Time;durP1;ratioP1;P1;durP2;ratioP2;P2;SDS_P1;SDS_P2;PMS_P1;PMS_P2;Temp;Humidity;BMP_temperature;BMP_pressure;BME280_temperature;BME280_humidity;BME280_pressure;Samples;Min_cycle;Max_cycle;Signal;HPM_P1;HPM_P2
2022/09/02 00:00:53;;;;;;;;;;;;;;;25.69;29.42;99225.22;4476369;32;33635;-85
2022/09/02 00:03:20;;;;;;;;;;;;;;;25.57;27.13;99231.13;4454183;32;33485;-85
2022/09/02 00:05:48;;;;;;;;;;;;;;;25.31;27.41;99223.53;4467792;32;33427;-84
2022/09/02 00:08:15;;;;;;;;;;;;;;;25.44;28.77;99220.19;4478989;32;34946;-85
2022/09/02 00:10:43;;;;;;;;;;;;;;;25.11;28.21;99209.34;4480298;32;35035;-85
2022/09/02 00:13:11;;;;;;;;;;;;;;;25.53;28.56;99213.59;4469071;32;34230;-85
2022/09/02 00:15:39;;;;;;;;;;;;;;;25.55;28.31;99211.72;4478347;32;34260;-84
2022/09/02 00:18:07;;;;;;;;;;;;;;;25.59;28.90;99209.78;4481044;32;34054;-86
2022/09/02 00:20:42;;;;;;;;;;;;;;;25.36;29.51;99206.44;4478568;32;33559;-83
2022/09/02 00:23:10;;;;;;;;;;;;;;;25.46;29.89;99207.72;4470603;32;33504;-85
2022/09/02 00:25:37;;;;;;;;;;;;;;;25.47;29.94;99205.94;4477638;32;33868;-86
2022/09/02 00:28:05;;;;;;;;;;;;;;;25.86;29.43;99203.16;4468819;32;33771;-84
2022/09/02 00:30:33;;;;;;;;;;;;;;;25.37;29.76;99202.84;4453235;32;34894;-85
2022/09/02 00:33:00;;;;;;;;;;;;;;;25.72;29.71;99206.47;4467559;32;33486;-86
2022/09/02 00:35:27;;;;;;;;;;;;;;;25.67;29.78;99204.97;4453219;32;33946;-85
2022/09/02 00:37:55;;;;;;;;;;;;;;;25.32;28.74;99202.22;4467210;32;34245;-84
2022/09/02 00:40:22;;;;;;;;;;;;;;;25.63;29.28;99195.44;4468087;32;34186;-84
2022/09/02 00:42:50;;;;;;;;;;;;;;;25.40;29.63;99194.75;4482273;32;33209;-84
2022/09/02 00:45:18;;;;;;;;;;;;;;;25.28;29.62;99194.47;4468881;32;33923;-85
2022/09/02 00:47:46;;;;;;;;;;;;;;;25.42;29.51;99197.31;4459610;32;35164;-84
2022/09/02 00:50:14;;;;;;;;;;;;;;;24.98;29.11;99198.44;4475187;32;34277;-85
2022/09/02 00:52:42;;;;;;;;;;;;;;;25.03;28.81;99192.91;4458315;32;34086;-84
2022/09/02 00:55:10;;;;;;;;;;;;;;;25.37;28.70;99192.22;4468704;32;34205;-85
2022/09/02 00:57:42;;;;;;;;;;;;;;;24.93;30.24;99184.53;4461828;32;34924;-85
2022/09/02 01:00:12;;;;;;;;;;;;;;;25.20;30.07;99190.38;4458172;32;34961;-85
2022/09/02 01:02:40;;;;;;;;;;;;;;;25.23;29.38;99190.25;4479170;32;33397;-85
2022/09/02 01:05:09;;;;;;;;;;;;;;;25.36;28.73;99190.50;4455263;32;33465;-84
2022/09/02 01:07:37;;;;;;;;;;;;;;;25.20;28.49;99186.88;4444659;32;34544;-84
2022/09/02 01:10:06;;;;;;;;;;;;;;;25.21;28.01;99184.13;4472990;32;33934;-85
2022/09/02 01:12:34;;;;;;;;;;;;;;;24.81;27.07;99189.50;4462839;32;34019;-83
2022/09/02 01:15:02;;;;;;;;;;;;;;;24.76;26.99;99179.97;4482589;32;34371;-85
2022/09/02 01:17:32;;;;;;;;;;;;;;;24.14;28.62;99180.91;4466706;32;34799;-85
2022/09/02 01:20:10;;;;;;;;;;;;;;;24.56;29.72;99187.09;4452830;32;33939;-85
2022/09/02 01:22:38;;;;;;;;;;;;;;;24.73;28.79;99188.06;4475947;32;32946;-85
2022/09/02 01:25:10;;;;;;;;;;;;;;;25.05;27.94;99188.41;4452923;32;34109;-85
2022/09/02 01:27:37;;;;;;;;;;;;;;;24.84;28.74;99187.56;4459069;32;34358;-84
2022/09/02 01:30:05;;;;;;;;;;;;;;;24.83;28.26;99190.31;4482163;32;34113;-85
2022/09/02 01:32:33;;;;;;;;;;;;;;;24.63;29.20;99184.13;4482294;32;33513;-85
2022/09/02 01:35:01;;;;;;;;;;;;;;;24.55;28.63;99183.59;4467871;32;34209;-86
2022/09/02 01:37:31;;;;;;;;;;;;;;;24.93;28.61;99186.31;4483745;32;34353;-85
2022/09/02 01:39:58;;;;;;;;;;;;;;;25.02;27.77;99187.69;4462595;32;33531;-85
2022/09/02 01:42:26;;;;;;;;;;;;;;;25.21;27.00;99186.78;4468783;32;33451;-84
2022/09/02 01:44:53;;;;;;;;;;;;;;;24.45;27.88;99182.28;4454458;32;34977;-86
2022/09/02 01:47:22;;;;;;;;;;;;;;;24.98;28.27;99181.66;4468761;32;34040;-85
2022/09/02 01:49:50;;;;;;;;;;;;;;;24.76;27.11;99176.47;4454309;32;34098;-84
2022/09/02 01:52:19;;;;;;;;;;;;;;;24.71;26.11;99176.69;4441758;32;34023;-83
2022/09/02 01:54:47;;;;;;;;;;;;;;;24.60;26.92;99178.94;4454626;32;35019;-84
2022/09/02 01:57:14;;;;;;;;;;;;;;;24.59;27.61;99177.22;4454661;32;35113;-84
2022/09/02 01:59:44;;;;;;;;;;;;;;;24.92;26.87;99172.16;4442270;32;34963;-86
2022/09/02 02:02:14;;;;;;;;;;;;;;;24.86;26.30;99172.47;4468792;32;34160;-84
2022/09/02 02:04:44;;;;;;;;;;;;;;;24.85;26.34;99167.22;4468289;32;34002;-84
2022/09/02 02:07:13;;;;;;;;;;;;;;;24.73;26.00;99169.50;4454312;32;34657;-84
2022/09/02 02:09:41;;;;;;;;;;;;;;;24.45;27.01;99169.03;4455084;32;34898;-85
2022/09/02 02:12:12;;;;;;;;;;;;;;;24.88;26.81;99167.94;4484174;32;33448;-85
2022/09/02 02:14:39;;;;;;;;;;;;;;;24.75;25.66;99172.09;4484387;32;34010;-86
2022/09/02 02:17:07;;;;;;;;;;;;;;;24.69;26.07;99172.38;4469973;32;34477;-85
2022/09/02 02:19:34;;;;;;;;;;;;;;;24.18;25.77;99165.75;4470011;32;33843;-87
2022/09/02 02:22:02;;;;;;;;;;;;;;;23.64;27.43;99165.31;4484423;32;33406;-85
2022/09/02 02:24:32;;;;;;;;;;;;;;;23.41;28.47;99162.69;4470569;32;33645;-86
2022/09/02 02:27:00;;;;;;;;;;;;;;;24.14;27.53;99161.50;4470103;32;34046;-84
2022/09/02 02:29:28;;;;;;;;;;;;;;;24.12;28.12;99161.56;4469599;32;33931;-84
2022/09/02 02:31:56;;;;;;;;;;;;;;;24.12;27.87;99161.56;4475178;32;33178;-82
2022/09/02 02:34:23;;;;;;;;;;;;;;;23.26;27.98;99172.09;4468388;32;35074;-84
2022/09/02 02:36:50;;;;;;;;;;;;;;;23.76;27.88;99169.28;4455111;32;34906;-84
2022/09/02 02:39:20;;;;;;;;;;;;;;;23.34;28.08;99174.47;4478008;32;34499;-84
2022/09/02 02:41:47;;;;;;;;;;;;;;;23.59;28.16;99164.63;4455802;32;33403;-83
2022/09/02 02:44:14;;;;;;;;;;;;;;;23.66;27.97;99163.47;4468161;32;34216;-84
2022/09/02 02:46:42;;;;;;;;;;;;;;;23.66;28.38;99163.47;4467833;32;33906;-83
2022/09/02 02:49:10;;;;;;;;;;;;;;;23.82;27.87;99163.72;4453756;32;33847;-82
2022/09/02 02:51:37;;;;;;;;;;;;;;;24.03;27.85;99161.97;4453939;32;33988;-84
2022/09/02 02:54:05;;;;;;;;;;;;;;;24.54;27.21;99167.75;4468116;32;35278;-84
2022/09/02 02:56:34;;;;;;;;;;;;;;;24.05;27.82;99165.38;4454094;32;33541;-83
2022/09/02 02:59:02;;;;;;;;;;;;;;;24.31;27.04;99168.72;4454069;32;34762;-84
2022/09/02 03:01:30;;;;;;;;;;;;;;;24.49;26.67;99160.00;4467443;32;33342;-85
2022/09/02 03:04:04;;;;;;;;;;;;;;;23.97;27.67;99151.62;4468319;32;33831;-83
2022/09/02 03:06:31;;;;;;;;;;;;;;;24.81;25.92;99157.69;4453478;32;34890;-84
2022/09/02 03:08:59;;;;;;;;;;;;;;;24.48;26.82;99158.28;4453914;32;34714;-84
2022/09/02 03:11:27;;;;;;;;;;;;;;;24.67;27.13;99158.34;4467999;32;33252;-82
2022/09/02 03:13:55;;;;;;;;;;;;;;;24.19;27.24;99156.88;4468105;32;34104;-84
2022/09/02 03:16:22;;;;;;;;;;;;;;;24.40;27.21;99158.62;4467688;32;35478;-84
2022/09/02 03:18:49;;;;;;;;;;;;;;;24.74;28.73;99155.34;4468241;32;33179;-84
2022/09/02 03:21:17;;;;;;;;;;;;;;;24.54;27.14;99142.09;4467358;32;34260;-84
2022/09/02 03:23:44;;;;;;;;;;;;;;;24.45;26.61;99148.69;4454137;32;33836;-85
2022/09/02 03:26:14;;;;;;;;;;;;;;;24.25;28.59;99152.16;4454228;32;34396;-85
2022/09/02 03:28:46;;;;;;;;;;;;;;;24.53;28.14;99150.97;4454383;32;33936;-85
2022/09/02 03:31:15;;;;;;;;;;;;;;;24.42;27.07;99150.59;4467497;32;34010;-83
2022/09/02 03:33:42;;;;;;;;;;;;;;;24.41;28.42;99151.53;4453708;32;34261;-85
2022/09/02 03:36:27;;;;;;;;;;;;;;;24.61;28.27;99154.16;4454121;32;34444;-83
2022/09/02 03:38:54;;;;;;;;;;;;;;;24.67;28.24;99153.88;4453693;32;33981;-85
2022/09/02 03:41:22;;;;;;;;;;;;;;;23.75;28.57;99152.53;4453702;32;33193;-86
2022/09/02 03:43:51;;;;;;;;;;;;;;;24.27;28.38;99157.41;4453532;32;34205;-84
2022/09/02 03:46:19;;;;;;;;;;;;;;;24.68;27.74;99152.94;4453946;32;35087;-84
2022/09/02 03:48:50;;;;;;;;;;;;;;;24.61;28.75;99148.84;4467918;32;33894;-85
2022/09/02 03:51:18;;;;;;;;;;;;;;;24.13;28.89;99150.06;4467989;32;33217;-84
2022/09/02 03:53:46;;;;;;;;;;;;;;;24.56;28.79;99153.50;4453812;32;35046;-85
2022/09/02 03:56:14;;;;;;;;;;;;;;;24.79;28.80;99157.78;4460967;32;34351;-86
2022/09/02 03:58:42;;;;;;;;;;;;;;;24.76;28.78;99158.75;4456220;32;34579;-83
2022/09/02 04:01:14;;;;;;;;;;;;;;;24.78;28.90;99141.94;4477003;32;33069;-85
2022/09/02 04:03:42;;;;;;;;;;;;;;;24.86;28.65;99147.75;4467662;32;33914;-85
2022/09/02 04:06:11;;;;;;;;;;;;;;;24.76;28.65;99149.94;4461641;32;34935;-84
2022/09/02 04:08:40;;;;;;;;;;;;;;;24.80;28.66;99161.28;4464699;32;34032;-85
2022/09/02 04:11:08;;;;;;;;;;;;;;;24.31;29.41;99160.78;4465894;32;34049;-85
2022/09/02 04:13:35;;;;;;;;;;;;;;;23.96;28.91;99155.19;4467697;32;34353;-84
2022/09/02 04:16:07;;;;;;;;;;;;;;;23.89;29.47;99159.03;4471458;32;34227;-84
2022/09/02 04:18:37;;;;;;;;;;;;;;;23.58;29.70;99154.97;4462803;32;34121;-85
2022/09/02 04:21:04;;;;;;;;;;;;;;;24.02;28.29;99161.09;4467807;32;33739;-85
2022/09/02 04:23:33;;;;;;;;;;;;;;;23.72;28.90;99159.75;4467693;32;33777;-83
2022/09/02 04:26:19;;;;;;;;;;;;;;;23.98;28.93;99164.81;4467410;32;34643;-83
2022/09/02 04:28:49;;;;;;;;;;;;;;;24.15;28.57;99158.78;4455499;32;34275;-84
2022/09/02 04:31:17;;;;;;;;;;;;;;;24.36;28.80;99164.06;4483379;32;33140;-84
2022/09/02 04:33:46;;;;;;;;;;;;;;;23.99;27.89;99163.88;4469469;32;34096;-86
2022/09/02 04:36:14;;;;;;;;;;;;;;;23.96;30.10;99171.94;4464685;32;34375;-85
2022/09/02 04:38:42;;;;;;;;;;;;;;;23.58;30.90;99162.03;4453764;32;33394;-84
2022/09/02 04:41:14;;;;;;;;;;;;;;;23.68;30.26;99166.09;4453375;32;33376;-83
2022/09/02 04:43:41;;;;;;;;;;;;;;;23.82;29.50;99170.78;4469112;32;34856;-83
2022/09/02 04:46:10;;;;;;;;;;;;;;;23.64;29.91;99170.59;4482888;32;34369;-86
2022/09/02 04:48:40;;;;;;;;;;;;;;;23.65;30.61;99172.31;4469171;32;34146;-84
2022/09/02 04:51:12;;;;;;;;;;;;;;;23.42;30.33;99175.88;4477113;32;32862;-83
2022/09/02 04:53:40;;;;;;;;;;;;;;;24.06;29.41;99179.53;4440561;32;34168;-86
2022/09/02 04:56:08;;;;;;;;;;;;;;;24.56;30.22;99172.06;4473196;32;34418;-86
2022/09/02 04:58:35;;;;;;;;;;;;;;;24.32;29.39;99173.97;4467586;32;33746;-86
2022/09/02 05:01:12;;;;;;;;;;;;;;;24.09;28.84;99177.56;4469019;32;33904;-86
2022/09/02 05:03:42;;;;;;;;;;;;;;;24.06;30.33;99171.56;4468796;32;34336;-86
2022/09/02 05:06:11;;;;;;;;;;;;;;;24.38;30.25;99173.69;4482918;32;35259;-86
2022/09/02 05:08:40;;;;;;;;;;;;;;;24.56;30.02;99176.50;4468487;32;33988;-87
2022/09/02 05:11:12;;;;;;;;;;;;;;;24.41;29.85;99180.69;4463427;32;33149;-85
2022/09/02 05:13:41;;;;;;;;;;;;;;;24.29;28.62;99179.41;4468887;32;34121;-85
2022/09/02 05:16:09;;;;;;;;;;;;;;;24.42;28.32;99180.59;4468844;32;35249;-86
2022/09/02 05:18:37;;;;;;;;;;;;;;;23.80;29.62;99173.50;4454934;32;34826;-86
2022/09/02 05:21:05;;;;;;;;;;;;;;;23.89;28.01;99172.25;4468926;32;34192;-86
2022/09/02 05:23:33;;;;;;;;;;;;;;;24.15;27.63;99169.38;4481322;31;35138;-87
2022/09/02 05:26:07;;;;;;;;;;;;;;;23.39;28.87;99183.09;4457692;32;34485;-85
2022/09/02 05:28:35;;;;;;;;;;;;;;;23.71;29.25;99181.81;4468778;32;34050;-85
2022/09/02 05:31:04;;;;;;;;;;;;;;;23.46;28.89;99176.63;4454713;32;33932;-85
2022/09/02 05:33:37;;;;;;;;;;;;;;;22.99;28.70;99179.31;4468992;32;33986;-85
2022/09/02 05:36:05;;;;;;;;;;;;;;;23.40;29.11;99182.16;4469958;32;35316;-86
2022/09/02 05:38:33;;;;;;;;;;;;;;;23.62;28.16;99176.88;4470085;32;34070;-88
2022/09/02 05:41:06;;;;;;;;;;;;;;;22.46;30.25;99182.94;4470314;32;34138;-85
2022/09/02 05:43:38;;;;;;;;;;;;;;;23.24;29.93;99187.19;4470439;32;34221;-87
2022/09/02 05:46:06;;;;;;;;;;;;;;;23.04;29.76;99175.59;4484657;31;34729;-85
2022/09/02 05:51:21;;;;;;;;;;;;;;;23.77;28.64;99177.13;4472115;31;34292;-88
2022/09/02 05:53:52;;;;;;;;;;;;;;;22.59;31.05;99178.13;4484127;32;34264;-86
2022/09/02 05:56:20;;;;;;;;;;;;;;;21.66;31.53;99184.75;4456854;32;33067;-87
2022/09/02 05:58:48;;;;;;;;;;;;;;;21.59;31.71;99184.09;4470242;32;34918;-87
2022/09/02 06:01:17;;;;;;;;;;;;;;;21.81;31.26;99178.97;4470551;32;33382;-86
2022/09/02 06:03:46;;;;;;;;;;;;;;;22.66;30.62;99184.91;4469893;32;34163;-85
2022/09/02 06:06:13;;;;;;;;;;;;;;;22.70;30.98;99193.59;4470202;32;35178;-84
2022/09/02 06:08:40;;;;;;;;;;;;;;;22.45;29.97;99185.66;4484453;32;33708;-86
2022/09/02 06:11:08;;;;;;;;;;;;;;;22.71;30.08;99188.22;4469457;32;32390;-87
2022/09/02 06:13:36;;;;;;;;;;;;;;;22.98;30.06;99189.03;4484135;32;33256;-86
2022/09/02 06:16:05;;;;;;;;;;;;;;;22.50;30.60;99189.00;4470002;32;34505;-85
2022/09/02 06:18:33;;;;;;;;;;;;;;;23.15;29.55;99191.06;4484128;31;34754;-85
2022/09/02 06:21:01;;;;;;;;;;;;;;;23.27;29.19;99187.94;4469913;32;33318;-86
2022/09/02 06:23:29;;;;;;;;;;;;;;;23.52;30.05;99181.66;4484054;31;34350;-85
2022/09/02 06:25:58;;;;;;;;;;;;;;;23.40;30.24;99190.94;4483894;31;34192;-87
2022/09/02 06:28:25;;;;;;;;;;;;;;;23.69;27.93;99189.81;4457149;32;33583;-87
2022/09/02 06:30:53;;;;;;;;;;;;;;;24.01;29.13;99190.28;4484057;32;33419;-88
2022/09/02 06:33:20;;;;;;;;;;;;;;;23.85;28.79;99187.41;4469783;32;35010;-85
2022/09/02 06:35:48;;;;;;;;;;;;;;;22.94;30.86;99198.00;4484261;32;35184;-88
2022/09/02 06:38:16;;;;;;;;;;;;;;;23.82;29.69;99186.69;4469847;32;34812;-87
2022/09/02 06:40:47;;;;;;;;;;;;;;;23.31;30.21;99197.47;4469887;32;33343;-87
2022/09/02 06:43:17;;;;;;;;;;;;;;;22.81;30.31;99205.50;4470155;32;34081;-86
2022/09/02 06:45:46;;;;;;;;;;;;;;;23.95;29.38;99190.56;4470212;32;34082;-85
2022/09/02 06:48:14;;;;;;;;;;;;;;;24.47;29.60;99194.53;4483999;32;34116;-85
2022/09/02 06:50:42;;;;;;;;;;;;;;;24.42;29.54;99195.66;4483706;32;33258;-86
2022/09/02 06:53:10;;;;;;;;;;;;;;;23.27;30.15;99198.50;4469384;32;34338;-86
2022/09/02 06:55:38;;;;;;;;;;;;;;;24.32;28.01;99191.63;4469813;32;35780;-88
2022/09/02 06:58:06;;;;;;;;;;;;;;;23.96;28.99;99200.22;4469909;31;34242;-89
2022/09/02 07:00:35;;;;;;;;;;;;;;;23.36;29.93;99202.56;4483972;32;33188;-87
2022/09/02 07:06:09;;;;;;;;;;;;;;;24.32;28.64;99188.97;4471623;32;35209;-85
2022/09/02 07:08:40;;;;;;;;;;;;;;;24.39;29.27;99190.47;4469760;32;34070;-87
2022/09/02 07:11:14;;;;;;;;;;;;;;;24.52;28.93;99186.37;4469801;32;34219;-86
2022/09/02 07:13:42;;;;;;;;;;;;;;;23.81;29.10;99183.16;4484128;32;34035;-87
2022/09/02 07:16:10;;;;;;;;;;;;;;;24.07;29.65;99190.03;4469907;32;34177;-86
2022/09/02 07:18:43;;;;;;;;;;;;;;;24.66;28.74;99189.28;4457404;32;34321;-85
2022/09/02 07:21:12;;;;;;;;;;;;;;;24.81;29.26;99182.41;4469872;32;33692;-87
2022/09/02 07:23:40;;;;;;;;;;;;;;;24.94;27.47;99182.72;4483473;32;33965;-85
2022/09/02 07:26:11;;;;;;;;;;;;;;;24.94;28.45;99182.72;4483906;31;34165;-85
2022/09/02 07:28:41;;;;;;;;;;;;;;;24.10;29.88;99189.06;4483853;32;33952;-87
2022/09/02 07:31:08;;;;;;;;;;;;;;;24.58;28.57;99195.84;4469200;32;32708;-87
2022/09/02 07:33:36;;;;;;;;;;;;;;;25.19;27.96;99188.66;4455648;32;33504;-85
2022/09/02 07:36:04;;;;;;;;;;;;;;;24.62;29.17;99184.16;4469875;32;33687;-86
2022/09/02 07:38:37;;;;;;;;;;;;;;;24.61;28.15;99199.22;4470095;32;34115;-85
2022/09/02 07:41:05;;;;;;;;;;;;;;;24.76;28.71;99190.56;4483837;32;33906;-85
2022/09/02 07:43:32;;;;;;;;;;;;;;;24.57;28.52;99194.13;4483653;32;34103;-86
2022/09/02 07:46:00;;;;;;;;;;;;;;;24.70;28.99;99198.81;4483522;31;34611;-85
2022/09/02 07:48:28;;;;;;;;;;;;;;;25.52;27.65;99189.78;4469728;32;34943;-87
2022/09/02 07:50:56;;;;;;;;;;;;;;;24.74;28.78;99183.66;4469026;32;33275;-86
2022/09/02 07:53:24;;;;;;;;;;;;;;;24.70;28.93;99190.88;4456423;32;34070;-87
2022/09/02 07:55:51;;;;;;;;;;;;;;;25.68;27.92;99186.31;4469324;32;35241;-84
2022/09/02 07:58:19;;;;;;;;;;;;;;;26.36;27.68;99182.94;4483402;32;34752;-86
2022/09/02 08:00:48;;;;;;;;;;;;;;;25.50;27.59;99189.88;4483764;32;34712;-86
2022/09/02 08:03:16;;;;;;;;;;;;;;;26.12;27.34;99185.94;4483543;32;35139;-87
2022/09/02 08:05:45;;;;;;;;;;;;;;;26.31;27.25;99185.00;4469030;32;34183;-87
2022/09/02 08:08:14;;;;;;;;;;;;;;;26.15;28.04;99182.25;4469523;32;34078;-86
2022/09/02 08:10:42;;;;;;;;;;;;;;;25.67;28.59;99191.69;4483162;32;34296;-85
2022/09/02 08:13:09;;;;;;;;;;;;;;;25.14;28.51;99193.31;4468792;32;34282;-86
2022/09/02 08:15:37;;;;;;;;;;;;;;;24.69;30.29;99199.72;4483168;32;34038;-87
2022/09/02 08:18:05;;;;;;;;;;;;;;;25.13;28.96;99199.56;4468931;32;33798;-86
2022/09/02 08:20:33;;;;;;;;;;;;;;;24.91;28.55;99193.47;4468908;32;34200;-85
2022/09/02 08:23:02;;;;;;;;;;;;;;;25.08;28.75;99190.94;4469351;32;33879;-85
2022/09/02 08:25:39;;;;;;;;;;;;;;;25.69;28.84;99188.03;4458262;32;34757;-85
2022/09/02 08:28:06;;;;;;;;;;;;;;;26.31;28.47;99185.00;4468911;32;33611;-87
2022/09/02 08:30:34;;;;;;;;;;;;;;;26.19;27.97;99187.34;4483508;32;33523;-86
2022/09/02 08:33:01;;;;;;;;;;;;;;;25.46;29.19;99188.28;4483122;32;34224;-86
2022/09/02 08:35:28;;;;;;;;;;;;;;;26.09;27.36;99190.53;4482875;31;35030;-86
2022/09/02 08:37:57;;;;;;;;;;;;;;;25.29;28.37;99185.56;4483055;32;34090;-86
2022/09/02 08:40:28;;;;;;;;;;;;;;;25.39;29.08;99187.72;4468841;32;33424;-85
2022/09/02 08:42:55;;;;;;;;;;;;;;;25.52;28.08;99181.81;4468930;32;34001;-86
2022/09/02 08:45:26;;;;;;;;;;;;;;;25.52;29.37;99180.03;4468643;32;34906;-86
2022/09/02 08:48:12;;;;;;;;;;;;;;;26.65;27.70;99184.13;4482736;31;34031;-85
2022/09/02 08:50:42;;;;;;;;;;;;;;;27.20;27.65;99178.53;4482366;31;34137;-86
2022/09/02 08:53:09;;;;;;;;;;;;;;;26.83;27.03;99183.16;4468377;32;34239;-87
2022/09/02 08:55:47;;;;;;;;;;;;;;;26.42;27.50;99186.16;4482763;32;34358;-86
2022/09/02 08:58:19;;;;;;;;;;;;;;;26.75;27.58;99179.19;4468617;32;35075;-86
2022/09/02 09:00:49;;;;;;;;;;;;;;;25.63;28.23;99183.00;4468649;32;32896;-87
2022/09/02 09:03:24;;;;;;;;;;;;;;;25.75;29.23;99186.00;4468449;32;34549;-86
2022/09/02 09:06:06;;;;;;;;;;;;;;;26.32;27.39;99182.25;4455463;32;34239;-86
2022/09/02 09:09:06;;;;;;;;;;;;;;;25.16;27.98;99180.84;4482707;32;33983;-86
2022/09/02 09:11:52;;;;;;;;;;;;;;;25.88;27.52;99176.53;4447491;31;33203;-86
2022/09/02 09:14:22;;;;;;;;;;;;;;;26.16;27.95;99168.03;4482518;32;33864;-86
2022/09/02 09:16:57;;;;;;;;;;;;;;;25.59;29.04;99176.13;4482799;32;34235;-86
2022/09/02 09:19:25;;;;;;;;;;;;;;;25.99;28.94;99174.22;4482287;32;34767;-86
2022/09/02 09:21:52;;;;;;;;;;;;;;;25.58;28.92;99168.25;4482748;32;33282;-86
2022/09/02 09:24:27;;;;;;;;;;;;;;;26.11;27.50;99164.75;4468605;32;34113;-85
2022/09/02 09:26:54;;;;;;;;;;;;;;;26.11;28.04;99172.72;4455107;32;34615;-86
2022/09/02 09:29:21;;;;;;;;;;;;;;;26.82;28.23;99173.47;4468178;32;33924;-86
2022/09/02 09:31:55;;;;;;;;;;;;;;;25.88;28.58;99172.09;4482545;32;33384;-86
2022/09/02 09:34:23;;;;;;;;;;;;;;;26.73;28.23;99171.28;4467782;32;33947;-86
2022/09/02 09:36:52;;;;;;;;;;;;;;;26.91;27.61;99180.06;4482285;32;33979;-85
2022/09/02 09:39:19;;;;;;;;;;;;;;;26.13;27.84;99166.38;4468209;32;34059;-86
2022/09/02 09:41:47;;;;;;;;;;;;;;;27.47;27.99;99160.16;4482007;32;33300;-86
2022/09/02 09:44:35;;;;;;;;;;;;;;;25.19;29.37;99167.44;4467851;32;34528;-86
2022/09/02 09:47:10;;;;;;;;;;;;;;;26.85;28.67;99164.44;4481800;32;35036;-86
2022/09/02 09:49:51;;;;;;;;;;;;;;;26.69;27.41;99161.75;4468474;32;33914;-85
2022/09/02 09:52:28;;;;;;;;;;;;;;;25.91;28.14;99150.69;4481875;32;33151;-85
2022/09/02 09:55:12;;;;;;;;;;;;;;;25.10;28.99;99154.59;4467575;32;34260;-87
2022/09/02 09:57:40;;;;;;;;;;;;;;;25.89;28.38;99159.66;4482889;32;35440;-86
2022/09/02 10:00:24;;;;;;;;;;;;;;;26.63;28.17;99151.41;4484390;32;34168;-86
2022/09/02 10:02:53;;;;;;;;;;;;;;;27.22;26.05;99152.66;4469950;32;33428;-86
2022/09/02 10:05:24;;;;;;;;;;;;;;;25.66;28.05;99140.37;4469939;32;34319;-86
2022/09/02 10:07:59;;;;;;;;;;;;;;;26.05;28.42;99149.97;4483936;32;34369;-86
2022/09/02 10:10:27;;;;;;;;;;;;;;;26.26;28.26;99150.69;4484430;32;34317;-87
2022/09/02 10:12:57;;;;;;;;;;;;;;;26.91;26.95;99151.66;4470189;32;33205;-87
2022/09/02 10:15:33;;;;;;;;;;;;;;;26.36;27.16;99156.38;4470081;32;34090;-86
2022/09/02 10:18:02;;;;;;;;;;;;;;;26.37;27.85;99148.34;4456953;31;34383;-86
2022/09/02 10:20:38;;;;;;;;;;;;;;;26.81;28.15;99153.09;4484093;32;34885;-87
2022/09/02 10:23:27;;;;;;;;;;;;;;;27.06;28.49;99155.28;4471572;32;34277;-84
2022/09/02 10:25:58;;;;;;;;;;;;;;;26.22;27.66;99153.59;4483942;32;34292;-86
2022/09/02 10:28:39;;;;;;;;;;;;;;;25.90;28.57;99156.06;4469809;32;34132;-86
2022/09/02 10:31:18;;;;;;;;;;;;;;;26.62;27.92;99155.03;4469804;32;34137;-86
2022/09/02 10:33:49;;;;;;;;;;;;;;;27.11;27.38;99161.25;4469889;32;34004;-86
2022/09/02 10:36:23;;;;;;;;;;;;;;;26.07;27.91;99158.75;4483791;32;34270;-86
2022/09/02 10:38:51;;;;;;;;;;;;;;;27.37;27.60;99151.81;4469934;32;33785;-87
2022/09/02 10:41:19;;;;;;;;;;;;;;;26.92;28.06;99166.69;4469929;32;33670;-86
2022/09/02 10:43:46;;;;;;;;;;;;;;;26.20;27.93;99157.16;4484005;31;33451;-87
2022/09/02 10:46:16;;;;;;;;;;;;;;;27.53;27.49;99157.13;4483736;32;34960;-86
2022/09/02 10:49:00;;;;;;;;;;;;;;;27.79;27.53;99147.66;4469848;32;34242;-86
2022/09/02 10:51:35;;;;;;;;;;;;;;;27.50;26.10;99151.09;4469662;31;34117;-87
2022/09/02 10:54:03;;;;;;;;;;;;;;;26.67;27.60;99159.19;4483829;31;34191;-85
2022/09/02 10:56:33;;;;;;;;;;;;;;;27.10;27.73;99153.31;4483615;31;35126;-86
2022/09/02 10:59:09;;;;;;;;;;;;;;;27.67;27.69;99150.16;4469974;32;34466;-86
2022/09/02 11:01:40;;;;;;;;;;;;;;;28.01;27.46;99152.59;4469669;32;34800;-87
2022/09/02 11:04:17;;;;;;;;;;;;;;;27.34;26.37;99148.47;4456800;32;31944;-87
2022/09/02 11:06:51;;;;;;;;;;;;;;;26.83;27.98;99153.03;4483661;32;35065;-86
2022/09/02 11:09:36;;;;;;;;;;;;;;;26.83;28.28;99155.69;4470787;32;35769;-87
2022/09/02 11:12:20;;;;;;;;;;;;;;;27.44;28.25;99152.34;4469647;32;34029;-86
2022/09/02 11:14:50;;;;;;;;;;;;;;;28.10;25.50;99146.72;4469373;32;34170;-87
2022/09/02 11:17:23;;;;;;;;;;;;;;;27.96;26.61;99148.47;4483926;32;34452;-86
2022/09/02 11:20:09;;;;;;;;;;;;;;;27.58;27.22;99148.91;4483789;31;34464;-84
2022/09/02 11:22:48;;;;;;;;;;;;;;;27.32;26.51;99142.38;4483483;31;33455;-87
2022/09/02 11:25:24;;;;;;;;;;;;;;;27.47;26.60;99144.19;4470131;32;32915;-86
2022/09/02 11:27:51;;;;;;;;;;;;;;;27.38;27.65;99134.03;4469399;32;33763;-86
2022/09/02 11:30:20;;;;;;;;;;;;;;;26.78;29.48;99147.94;4483842;32;34092;-85
2022/09/02 11:33:06;;;;;;;;;;;;;;;27.37;27.84;99132.31;4483708;32;33901;-86
2022/09/02 11:35:36;;;;;;;;;;;;;;;27.48;27.18;99126.38;4483591;32;33139;-86
2022/09/02 11:38:06;;;;;;;;;;;;;;;27.89;27.36;99126.69;4469647;32;34216;-86
2022/09/02 11:40:36;;;;;;;;;;;;;;;27.04;26.45;99138.53;4483452;32;35117;-86
2022/09/02 11:43:21;;;;;;;;;;;;;;;27.63;26.57;99126.38;4483415;32;34160;-86
2022/09/02 11:45:55;;;;;;;;;;;;;;;27.78;26.12;99118.47;4469298;32;33299;-86
2022/09/02 11:48:28;;;;;;;;;;;;;;;28.12;27.04;99117.31;4469498;32;33787;-86
2022/09/02 11:50:55;;;;;;;;;;;;;;;27.75;26.59;99113.31;4483507;32;35164;-87
2022/09/02 11:53:52;;;;;;;;;;;;;;;27.15;28.01;99114.03;4483462;31;34273;-86
2022/09/02 11:56:24;;;;;;;;;;;;;;;27.44;27.06;99107.06;4471411;32;34251;-86
2022/09/02 11:58:51;;;;;;;;;;;;;;;27.42;26.73;99116.94;4469171;32;34849;-87
2022/09/02 12:01:22;;;;;;;;;;;;;;;27.78;25.78;99110.47;4469403;32;34402;-86
2022/09/02 12:03:52;;;;;;;;;;;;;;;27.72;26.65;99100.97;4483431;31;34265;-87
2022/09/02 12:06:58;;;;;;;;;;;;;;;28.08;25.67;99116.66;4483756;32;33235;-86
2022/09/02 12:09:42;;;;;;;;;;;;;;;27.34;26.96;99112.03;4483353;32;33962;-86
2022/09/02 12:12:30;;;;;;;;;;;;;;;27.14;27.72;99113.19;4468686;32;34306;-86
2022/09/02 12:14:57;;;;;;;;;;;;;;;27.23;27.75;99109.13;4469035;32;33860;-86
2022/09/02 12:17:36;;;;;;;;;;;;;;;27.91;26.83;99105.25;4468730;32;32499;-86
2022/09/02 12:20:06;;;;;;;;;;;;;;;28.33;25.41;99110.66;4469099;32;34213;-85
2022/09/02 12:22:37;;;;;;;;;;;;;;;26.97;26.28;99115.88;4483207;32;33681;-86
2022/09/02 12:25:23;;;;;;;;;;;;;;;27.43;26.54;99108.03;4469166;32;34262;-86
2022/09/02 12:28:20;;;;;;;;;;;;;;;28.40;26.08;99100.53;4482892;32;34220;-86
2022/09/02 12:31:01;;;;;;;;;;;;;;;27.79;24.55;99101.53;4482991;32;35001;-86
2022/09/02 12:33:29;;;;;;;;;;;;;;;28.10;26.31;99104.06;4483043;32;35181;-86
2022/09/02 12:35:57;;;;;;;;;;;;;;;28.56;25.39;99095.09;4483306;32;34100;-86
2022/09/02 12:38:34;;;;;;;;;;;;;;;28.75;25.26;99094.78;4468857;32;33466;-86
2022/09/02 12:41:03;;;;;;;;;;;;;;;29.19;23.25;99096.47;4482868;32;34864;-87
2022/09/02 12:43:36;;;;;;;;;;;;;;;28.93;26.38;99098.97;4483369;32;33837;-86
2022/09/02 12:46:22;;;;;;;;;;;;;;;28.90;24.35;99088.47;4482992;32;33880;-86
2022/09/02 12:48:57;;;;;;;;;;;;;;;29.24;23.96;99086.34;4468482;31;33053;-86
2022/09/02 12:52:03;;;;;;;;;;;;;;;28.60;25.25;99081.50;4483012;32;34289;-86
2022/09/02 12:54:46;;;;;;;;;;;;;;;27.97;25.62;99084.44;4405684;32;34180;-86
2022/09/02 12:57:15;;;;;;;;;;;;;;;28.70;24.37;99086.25;4405746;32;34907;-87
2022/09/02 12:59:43;;;;;;;;;;;;;;;28.22;24.73;99083.81;4443454;32;33319;-86
2022/09/02 13:02:29;;;;;;;;;;;;;;;27.58;25.41;99079.66;4482755;32;34810;-85
2022/09/02 13:05:16;;;;;;;;;;;;;;;27.73;26.37;99081.41;4468336;32;33725;-86
2022/09/02 13:07:53;;;;;;;;;;;;;;;28.21;25.17;99074.09;4468520;32;34969;-86
2022/09/02 13:10:25;;;;;;;;;;;;;;;28.66;25.13;99079.37;4468678;32;34035;-87
2022/09/02 13:12:55;;;;;;;;;;;;;;;27.95;25.18;99072.16;4482803;32;34332;-87